Mount Shasta, California
Current Conditions -  °F | °C
As of 12:56 PM on Wednesday 26 Nov 2014 (Local Time) from KMHS Reporting Station
Clear Clear  
Wind Chill: 63°   Ceiling: Unl
Heat Index: 63°   Visibility: 10mi
Dew Point: 39°   Wind: 5mph
Humidity: 41%   Direction: NA
Pressure: 30.28"   Gusts: NA
Location:  41.31°N, 122.31°W
Report Text: KMHS 262056Z AUTO VRB04KT 10SM CLR 17/04 A3028 RMK AO2 SLP269 T01720039 58019
Loading
Personal Weather Stations






























Interactive Weather Map New forecast layout! Learn more

10-Day Weather Forecast

Advertisements
Track Severe Weather on mobile